This is the latest recevied weather packets stored in our database for station/object DM0MR. If no packets are shown the sender has not sent any weather packets the latest 10 day(s).
| Time | Temp. | Humidity | Pressure | Rain* | Wind** | Luminosity | Snow |
|---|---|---|---|---|---|---|---|
| 1777163182 | 6.67° C | 79% | 1010.1 hPa | 0 mm | - | - | - |
| 1777161382 | 7.78° C | 78% | 1009.6 hPa | 0 mm | - | - | - |
| 1777160481 | 7.78° C | 79% | 1009.5 hPa | 0 mm | - | - | - |
| 1777159580 | 8.33° C | 78% | 1009.3 hPa | 0 mm | - | - | - |
| 1777158683 | 8.89° C | 77% | 1009.1 hPa | 0 mm | - | - | - |
| 1777156881 | 9.44° C | 76% | 1008.6 hPa | 0 mm | - | - | - |
| 1777155981 | 8.33° C | 78% | 1008.3 hPa | 0 mm | - | - | - |
| 1777154181 | 7.22° C | 74% | 1007.7 hPa | 0 mm | - | - | - |
| 1777151481 | 7.78° C | 71% | 1007.1 hPa | 0 mm | - | - | - |
| 1777149680 | 8.33° C | 68% | 1006.7 hPa | 0 mm | - | - | - |
| 1777148780 | 8.89° C | 65% | 1006.6 hPa | 0 mm | - | - | - |
| 1777147881 | 9.44° C | 65% | 1006.7 hPa | 0 mm | - | - | - |
| 1777146981 | 9.44° C | 64% | 1006.6 hPa | 0 mm | - | - | - |
| 1777140681 | 14.44° C | 40% | 1005.5 hPa | 0 mm | - | - | - |
| 1777139781 | 15° C | 36% | 1005.5 hPa | 0 mm | - | - | - |
| 1777138881 | 15.56° C | 35% | 1005.6 hPa | 0 mm | - | - | - |
| 1777137980 | 16.11° C | 32% | 1005.3 hPa | 0 mm | - | - | - |
| 1777137082 | 16.67° C | 32% | 1005.2 hPa | 0 mm | - | - | - |
| 1777136181 | 16.67° C | 32% | 1005 hPa | 0 mm | - | - | - |
| 1777135284 | 17.22° C | 31% | 1005.2 hPa | 0 mm | - | - | - |
| 1777134380 | 17.78° C | 32% | 1005.1 hPa | 0 mm | - | - | - |
| 1777133480 | 18.33° C | 35% | 1005 hPa | 0 mm | - | - | - |
| 1777132580 | 18.89° C | 38% | 1005.1 hPa | 0 mm | - | - | - |
| 1777131681 | 18.33° C | 41% | 1005.1 hPa | 0 mm | - | - | - |
| 1777130781 | 18.33° C | 41% | 1005.2 hPa | 0 mm | - | - | - |
* Rain latest hour (hover to see other rain measurements)
** Current wind speed in m/s (hover to see current wind gust speed)